sensor_id;sensor_type;location;lat;lon;timestamp;P1;durP1;ratioP1;P2;durP2;ratioP2
13311;SDS011;34033;48.672;9.376;2023-02-08T00:01:12;8.33;;;5.93;;
13311;SDS011;34033;48.672;9.376;2023-02-08T00:03:39;6.60;;;4.83;;
13311;SDS011;34033;48.672;9.376;2023-02-08T00:06:05;8.30;;;4.87;;
13311;SDS011;34033;48.672;9.376;2023-02-08T00:08:31;7.27;;;4.80;;
13311;SDS011;34033;48.672;9.376;2023-02-08T00:10:58;9.33;;;5.70;;
13311;SDS011;34033;48.672;9.376;2023-02-08T00:13:23;8.73;;;4.83;;
13311;SDS011;34033;48.672;9.376;2023-02-08T00:15:50;6.47;;;4.40;;
13311;SDS011;34033;48.672;9.376;2023-02-08T00:18:17;7.00;;;4.50;;
13311;SDS011;34033;48.672;9.376;2023-02-08T00:20:43;10.37;;;4.63;;
13311;SDS011;34033;48.672;9.376;2023-02-08T00:23:09;8.30;;;5.27;;
13311;SDS011;34033;48.672;9.376;2023-02-08T00:25:35;9.00;;;5.30;;
13311;SDS011;34033;48.672;9.376;2023-02-08T00:28:00;9.07;;;5.20;;
13311;SDS011;34033;48.672;9.376;2023-02-08T00:30:25;9.07;;;5.40;;
13311;SDS011;34033;48.672;9.376;2023-02-08T00:32:51;8.23;;;5.07;;
13311;SDS011;34033;48.672;9.376;2023-02-08T00:35:16;7.90;;;4.67;;
13311;SDS011;34033;48.672;9.376;2023-02-08T00:37:41;7.70;;;4.80;;
13311;SDS011;34033;48.672;9.376;2023-02-08T00:40:07;9.00;;;4.47;;
13311;SDS011;34033;48.672;9.376;2023-02-08T00:42:33;5.90;;;4.13;;
13311;SDS011;34033;48.672;9.376;2023-02-08T00:44:58;6.23;;;4.20;;
13311;SDS011;34033;48.672;9.376;2023-02-08T00:47:24;6.83;;;4.00;;
13311;SDS011;34033;48.672;9.376;2023-02-08T00:49:49;5.60;;;3.93;;
13311;SDS011;34033;48.672;9.376;2023-02-08T00:52:15;8.17;;;4.20;;
13311;SDS011;34033;48.672;9.376;2023-02-08T00:54:40;9.80;;;4.80;;
13311;SDS011;34033;48.672;9.376;2023-02-08T00:57:06;8.20;;;4.73;;
13311;SDS011;34033;48.672;9.376;2023-02-08T00:59:32;7.43;;;4.80;;
13311;SDS011;34033;48.672;9.376;2023-02-08T01:01:57;7.93;;;4.87;;
13311;SDS011;34033;48.672;9.376;2023-02-08T01:04:23;7.80;;;4.57;;
13311;SDS011;34033;48.672;9.376;2023-02-08T01:06:48;9.47;;;4.30;;
13311;SDS011;34033;48.672;9.376;2023-02-08T01:09:13;6.77;;;4.37;;
13311;SDS011;34033;48.672;9.376;2023-02-08T01:11:39;6.37;;;3.87;;
13311;SDS011;34033;48.672;9.376;2023-02-08T01:14:04;5.33;;;3.93;;
13311;SDS011;34033;48.672;9.376;2023-02-08T01:16:30;6.40;;;4.47;;
13311;SDS011;34033;48.672;9.376;2023-02-08T01:18:57;7.23;;;4.37;;
13311;SDS011;34033;48.672;9.376;2023-02-08T01:21:25;6.83;;;4.50;;
13311;SDS011;34033;48.672;9.376;2023-02-08T01:23:52;5.47;;;3.50;;
13311;SDS011;34033;48.672;9.376;2023-02-08T01:26:19;6.13;;;3.87;;
13311;SDS011;34033;48.672;9.376;2023-02-08T01:28:45;5.70;;;4.07;;
13311;SDS011;34033;48.672;9.376;2023-02-08T01:31:15;7.23;;;3.83;;
13311;SDS011;34033;48.672;9.376;2023-02-08T01:33:43;4.57;;;3.70;;
13311;SDS011;34033;48.672;9.376;2023-02-08T01:36:09;5.47;;;3.83;;
13311;SDS011;34033;48.672;9.376;2023-02-08T01:38:40;7.67;;;4.17;;
13311;SDS011;34033;48.672;9.376;2023-02-08T01:41:07;5.07;;;3.43;;
13311;SDS011;34033;48.672;9.376;2023-02-08T01:46:23;5.23;;;3.63;;
13311;SDS011;34033;48.672;9.376;2023-02-08T01:48:48;4.13;;;3.23;;
13311;SDS011;34033;48.672;9.376;2023-02-08T01:51:19;5.57;;;3.43;;
13311;SDS011;34033;48.672;9.376;2023-02-08T01:53:47;5.97;;;3.73;;
13311;SDS011;34033;48.672;9.376;2023-02-08T01:56:34;2.93;;;2.67;;
13311;SDS011;34033;48.672;9.376;2023-02-08T01:59:03;4.13;;;3.27;;
13311;SDS011;34033;48.672;9.376;2023-02-08T02:01:33;6.03;;;3.43;;
13311;SDS011;34033;48.672;9.376;2023-02-08T02:04:00;6.10;;;3.43;;
13311;SDS011;34033;48.672;9.376;2023-02-08T02:06:30;4.13;;;3.37;;
13311;SDS011;34033;48.672;9.376;2023-02-08T02:09:04;5.57;;;3.27;;
13311;SDS011;34033;48.672;9.376;2023-02-08T02:11:34;5.53;;;3.33;;
13311;SDS011;34033;48.672;9.376;2023-02-08T02:13:59;4.67;;;3.30;;
13311;SDS011;34033;48.672;9.376;2023-02-08T02:16:25;4.67;;;3.40;;
13311;SDS011;34033;48.672;9.376;2023-02-08T02:18:51;4.73;;;3.17;;
13311;SDS011;34033;48.672;9.376;2023-02-08T02:24:10;4.47;;;3.33;;
13311;SDS011;34033;48.672;9.376;2023-02-08T02:27:08;4.70;;;3.17;;
13311;SDS011;34033;48.672;9.376;2023-02-08T02:35:06;4.33;;;3.30;;
13311;SDS011;34033;48.672;9.376;2023-02-08T02:40:45;5.50;;;3.07;;
13311;SDS011;34033;48.672;9.376;2023-02-08T02:46:26;4.93;;;3.50;;
13311;SDS011;34033;48.672;9.376;2023-02-08T02:52:09;5.80;;;3.53;;
13311;SDS011;34033;48.672;9.376;2023-02-08T02:54:39;4.37;;;3.60;;
13311;SDS011;34033;48.672;9.376;2023-02-08T02:57:11;5.03;;;3.00;;
13311;SDS011;34033;48.672;9.376;2023-02-08T02:59:41;4.60;;;3.67;;
13311;SDS011;34033;48.672;9.376;2023-02-08T03:02:09;4.93;;;3.50;;
13311;SDS011;34033;48.672;9.376;2023-02-08T03:09:41;3.37;;;2.80;;
13311;SDS011;34033;48.672;9.376;2023-02-08T03:20:39;7.57;;;3.07;;
13311;SDS011;34033;48.672;9.376;2023-02-08T03:26:10;4.20;;;2.90;;
13311;SDS011;34033;48.672;9.376;2023-02-08T03:31:43;4.53;;;2.33;;
13311;SDS011;34033;48.672;9.376;2023-02-08T03:34:18;5.57;;;2.80;;
13311;SDS011;34033;48.672;9.376;2023-02-08T03:36:48;3.47;;;2.63;;
13311;SDS011;34033;48.672;9.376;2023-02-08T03:39:20;4.07;;;2.70;;
13311;SDS011;34033;48.672;9.376;2023-02-08T03:41:50;4.03;;;2.70;;
13311;SDS011;34033;48.672;9.376;2023-02-08T03:44:40;2.87;;;2.50;;
13311;SDS011;34033;48.672;9.376;2023-02-08T03:47:14;3.40;;;2.70;;
13311;SDS011;34033;48.672;9.376;2023-02-08T03:49:41;7.77;;;3.20;;
13311;SDS011;34033;48.672;9.376;2023-02-08T03:52:09;3.07;;;2.27;;
13311;SDS011;34033;48.672;9.376;2023-02-08T03:54:49;8.17;;;2.57;;
13311;SDS011;34033;48.672;9.376;2023-02-08T03:57:20;3.10;;;2.80;;
13311;SDS011;34033;48.672;9.376;2023-02-08T03:59:51;4.20;;;2.70;;
13311;SDS011;34033;48.672;9.376;2023-02-08T04:02:20;6.13;;;3.37;;
13311;SDS011;34033;48.672;9.376;2023-02-08T04:04:49;3.40;;;2.90;;
13311;SDS011;34033;48.672;9.376;2023-02-08T04:07:17;2.97;;;2.60;;
13311;SDS011;34033;48.672;9.376;2023-02-08T04:09:43;4.13;;;2.60;;
13311;SDS011;34033;48.672;9.376;2023-02-08T04:12:08;4.23;;;2.90;;
13311;SDS011;34033;48.672;9.376;2023-02-08T04:14:34;3.50;;;2.90;;
13311;SDS011;34033;48.672;9.376;2023-02-08T04:17:00;4.20;;;2.63;;
13311;SDS011;34033;48.672;9.376;2023-02-08T04:19:25;3.07;;;2.50;;
13311;SDS011;34033;48.672;9.376;2023-02-08T04:21:50;7.13;;;2.97;;
13311;SDS011;34033;48.672;9.376;2023-02-08T04:24:16;3.73;;;2.93;;
13311;SDS011;34033;48.672;9.376;2023-02-08T04:26:41;4.27;;;2.47;;
13311;SDS011;34033;48.672;9.376;2023-02-08T04:29:06;3.67;;;3.00;;
13311;SDS011;34033;48.672;9.376;2023-02-08T04:31:32;4.80;;;3.10;;
13311;SDS011;34033;48.672;9.376;2023-02-08T04:33:57;4.77;;;3.00;;
13311;SDS011;34033;48.672;9.376;2023-02-08T04:36:22;4.00;;;2.97;;
13311;SDS011;34033;48.672;9.376;2023-02-08T04:38:48;3.20;;;2.77;;
13311;SDS011;34033;48.672;9.376;2023-02-08T04:41:13;4.93;;;3.07;;
13311;SDS011;34033;48.672;9.376;2023-02-08T04:43:39;5.43;;;3.37;;
13311;SDS011;34033;48.672;9.376;2023-02-08T04:46:04;4.50;;;3.03;;
13311;SDS011;34033;48.672;9.376;2023-02-08T04:48:29;3.87;;;2.70;;
13311;SDS011;34033;48.672;9.376;2023-02-08T04:50:55;4.07;;;2.73;;
13311;SDS011;34033;48.672;9.376;2023-02-08T04:53:21;3.10;;;2.70;;
13311;SDS011;34033;48.672;9.376;2023-02-08T04:55:47;4.70;;;3.07;;
13311;SDS011;34033;48.672;9.376;2023-02-08T04:58:13;3.57;;;2.80;;
13311;SDS011;34033;48.672;9.376;2023-02-08T05:00:38;4.17;;;3.07;;
13311;SDS011;34033;48.672;9.376;2023-02-08T05:03:03;3.63;;;2.63;;
13311;SDS011;34033;48.672;9.376;2023-02-08T05:05:29;3.67;;;2.87;;
13311;SDS011;34033;48.672;9.376;2023-02-08T05:07:54;4.40;;;3.07;;
13311;SDS011;34033;48.672;9.376;2023-02-08T05:10:20;8.53;;;3.47;;
13311;SDS011;34033;48.672;9.376;2023-02-08T05:12:45;4.53;;;3.27;;
13311;SDS011;34033;48.672;9.376;2023-02-08T05:15:10;6.80;;;3.10;;
13311;SDS011;34033;48.672;9.376;2023-02-08T05:17:36;4.20;;;2.90;;
13311;SDS011;34033;48.672;9.376;2023-02-08T05:20:02;6.43;;;3.20;;
13311;SDS011;34033;48.672;9.376;2023-02-08T05:22:28;6.63;;;3.37;;
13311;SDS011;34033;48.672;9.376;2023-02-08T05:24:53;4.40;;;3.23;;
13311;SDS011;34033;48.672;9.376;2023-02-08T05:27:19;6.37;;;3.47;;
13311;SDS011;34033;48.672;9.376;2023-02-08T05:29:44;4.00;;;3.00;;
13311;SDS011;34033;48.672;9.376;2023-02-08T05:32:10;5.07;;;3.37;;
13311;SDS011;34033;48.672;9.376;2023-02-08T05:34:36;5.97;;;3.40;;
13311;SDS011;34033;48.672;9.376;2023-02-08T05:37:02;5.77;;;3.60;;
13311;SDS011;34033;48.672;9.376;2023-02-08T05:39:28;7.00;;;3.27;;
13311;SDS011;34033;48.672;9.376;2023-02-08T05:41:53;4.10;;;3.10;;
13311;SDS011;34033;48.672;9.376;2023-02-08T05:44:18;5.30;;;3.30;;
13311;SDS011;34033;48.672;9.376;2023-02-08T05:46:44;5.30;;;3.37;;
13311;SDS011;34033;48.672;9.376;2023-02-08T05:49:12;6.83;;;3.30;;
13311;SDS011;34033;48.672;9.376;2023-02-08T05:51:38;4.37;;;3.10;;
13311;SDS011;34033;48.672;9.376;2023-02-08T05:54:03;3.77;;;2.90;;
13311;SDS011;34033;48.672;9.376;2023-02-08T05:56:28;4.73;;;3.37;;
13311;SDS011;34033;48.672;9.376;2023-02-08T05:58:54;4.60;;;3.17;;
13311;SDS011;34033;48.672;9.376;2023-02-08T06:01:19;4.47;;;3.30;;
13311;SDS011;34033;48.672;9.376;2023-02-08T06:03:45;5.17;;;2.90;;
13311;SDS011;34033;48.672;9.376;2023-02-08T06:06:10;3.90;;;2.53;;
13311;SDS011;34033;48.672;9.376;2023-02-08T06:08:36;4.13;;;3.03;;
13311;SDS011;34033;48.672;9.376;2023-02-08T06:11:02;4.50;;;2.83;;
13311;SDS011;34033;48.672;9.376;2023-02-08T06:13:28;5.03;;;2.67;;
13311;SDS011;34033;48.672;9.376;2023-02-08T06:15:53;4.10;;;3.07;;
13311;SDS011;34033;48.672;9.376;2023-02-08T06:18:19;4.93;;;3.30;;
13311;SDS011;34033;48.672;9.376;2023-02-08T06:20:44;5.03;;;2.83;;
13311;SDS011;34033;48.672;9.376;2023-02-08T06:23:10;5.10;;;3.20;;
13311;SDS011;34033;48.672;9.376;2023-02-08T06:25:35;5.40;;;2.77;;
13311;SDS011;34033;48.672;9.376;2023-02-08T06:28:00;4.97;;;3.13;;
13311;SDS011;34033;48.672;9.376;2023-02-08T06:30:27;4.13;;;3.23;;
13311;SDS011;34033;48.672;9.376;2023-02-08T06:32:52;5.37;;;3.60;;
13311;SDS011;34033;48.672;9.376;2023-02-08T06:35:18;4.93;;;3.27;;
13311;SDS011;34033;48.672;9.376;2023-02-08T06:37:43;5.17;;;3.50;;
13311;SDS011;34033;48.672;9.376;2023-02-08T06:40:09;4.30;;;3.20;;
13311;SDS011;34033;48.672;9.376;2023-02-08T06:42:34;6.37;;;3.70;;
13311;SDS011;34033;48.672;9.376;2023-02-08T06:45:00;5.03;;;3.10;;
13311;SDS011;34033;48.672;9.376;2023-02-08T06:47:25;4.67;;;3.10;;
13311;SDS011;34033;48.672;9.376;2023-02-08T06:49:51;3.93;;;2.90;;
13311;SDS011;34033;48.672;9.376;2023-02-08T06:52:17;5.47;;;3.50;;
13311;SDS011;34033;48.672;9.376;2023-02-08T06:54:43;5.37;;;3.13;;
13311;SDS011;34033;48.672;9.376;2023-02-08T06:57:09;5.27;;;3.20;;
13311;SDS011;34033;48.672;9.376;2023-02-08T06:59:36;4.10;;;3.10;;
13311;SDS011;34033;48.672;9.376;2023-02-08T07:02:02;4.30;;;3.27;;
13311;SDS011;34033;48.672;9.376;2023-02-08T07:04:27;4.07;;;3.50;;
13311;SDS011;34033;48.672;9.376;2023-02-08T07:06:53;3.83;;;3.07;;
13311;SDS011;34033;48.672;9.376;2023-02-08T07:09:18;7.77;;;3.33;;
13311;SDS011;34033;48.672;9.376;2023-02-08T07:11:43;5.33;;;3.20;;
13311;SDS011;34033;48.672;9.376;2023-02-08T07:14:12;5.23;;;3.13;;
13311;SDS011;34033;48.672;9.376;2023-02-08T07:16:39;4.37;;;2.97;;
13311;SDS011;34033;48.672;9.376;2023-02-08T07:19:04;4.03;;;2.93;;
13311;SDS011;34033;48.672;9.376;2023-02-08T07:21:29;4.80;;;3.23;;
13311;SDS011;34033;48.672;9.376;2023-02-08T07:23:55;5.00;;;3.30;;
13311;SDS011;34033;48.672;9.376;2023-02-08T07:26:20;5.20;;;3.53;;
13311;SDS011;34033;48.672;9.376;2023-02-08T07:28:46;6.77;;;4.23;;
13311;SDS011;34033;48.672;9.376;2023-02-08T07:31:12;6.53;;;3.80;;
13311;SDS011;34033;48.672;9.376;2023-02-08T07:33:38;5.73;;;3.93;;
13311;SDS011;34033;48.672;9.376;2023-02-08T07:36:05;6.33;;;3.90;;
13311;SDS011;34033;48.672;9.376;2023-02-08T07:38:31;5.30;;;3.37;;
13311;SDS011;34033;48.672;9.376;2023-02-08T07:41:01;5.87;;;3.50;;
13311;SDS011;34033;48.672;9.376;2023-02-08T07:43:28;6.43;;;3.80;;
13311;SDS011;34033;48.672;9.376;2023-02-08T07:45:53;6.47;;;3.53;;
13311;SDS011;34033;48.672;9.376;2023-02-08T07:48:19;4.23;;;3.40;;
13311;SDS011;34033;48.672;9.376;2023-02-08T07:50:44;6.00;;;3.53;;
13311;SDS011;34033;48.672;9.376;2023-02-08T07:53:09;9.63;;;3.80;;
13311;SDS011;34033;48.672;9.376;2023-02-08T07:55:35;5.60;;;3.67;;
13311;SDS011;34033;48.672;9.376;2023-02-08T07:58:00;8.23;;;3.63;;
13311;SDS011;34033;48.672;9.376;2023-02-08T08:00:26;4.97;;;3.10;;
13311;SDS011;34033;48.672;9.376;2023-02-08T08:02:51;7.33;;;3.40;;
13311;SDS011;34033;48.672;9.376;2023-02-08T08:05:17;5.50;;;3.17;;
13311;SDS011;34033;48.672;9.376;2023-02-08T08:07:43;6.57;;;3.83;;
13311;SDS011;34033;48.672;9.376;2023-02-08T08:10:08;5.37;;;3.20;;
13311;SDS011;34033;48.672;9.376;2023-02-08T08:12:33;7.33;;;3.87;;
13311;SDS011;34033;48.672;9.376;2023-02-08T08:14:59;5.47;;;3.47;;
13311;SDS011;34033;48.672;9.376;2023-02-08T08:17:24;5.07;;;3.43;;
13311;SDS011;34033;48.672;9.376;2023-02-08T08:19:49;4.87;;;3.17;;
13311;SDS011;34033;48.672;9.376;2023-02-08T08:22:15;5.67;;;3.80;;
13311;SDS011;34033;48.672;9.376;2023-02-08T08:24:40;5.93;;;3.80;;
13311;SDS011;34033;48.672;9.376;2023-02-08T08:27:06;4.47;;;3.23;;
13311;SDS011;34033;48.672;9.376;2023-02-08T08:29:32;6.10;;;3.27;;
13311;SDS011;34033;48.672;9.376;2023-02-08T08:31:59;4.60;;;3.73;;
13311;SDS011;34033;48.672;9.376;2023-02-08T08:34:24;5.13;;;3.67;;
13311;SDS011;34033;48.672;9.376;2023-02-08T08:36:57;5.13;;;3.70;;
13311;SDS011;34033;48.672;9.376;2023-02-08T08:39:24;4.87;;;3.37;;
13311;SDS011;34033;48.672;9.376;2023-02-08T08:41:50;8.30;;;3.87;;
13311;SDS011;34033;48.672;9.376;2023-02-08T08:44:16;6.90;;;3.90;;
13311;SDS011;34033;48.672;9.376;2023-02-08T08:46:41;4.47;;;3.23;;
13311;SDS011;34033;48.672;9.376;2023-02-08T08:49:07;3.97;;;3.03;;
13311;SDS011;34033;48.672;9.376;2023-02-08T08:51:33;7.03;;;3.60;;
13311;SDS011;34033;48.672;9.376;2023-02-08T08:54:02;5.70;;;3.77;;
13311;SDS011;34033;48.672;9.376;2023-02-08T08:56:29;5.87;;;3.30;;
13311;SDS011;34033;48.672;9.376;2023-02-08T08:58:55;4.83;;;3.80;;
13311;SDS011;34033;48.672;9.376;2023-02-08T09:01:20;6.13;;;3.57;;
13311;SDS011;34033;48.672;9.376;2023-02-08T09:03:45;7.57;;;3.67;;
13311;SDS011;34033;48.672;9.376;2023-02-08T09:06:11;6.60;;;3.93;;
13311;SDS011;34033;48.672;9.376;2023-02-08T09:08:36;6.60;;;4.00;;
13311;SDS011;34033;48.672;9.376;2023-02-08T09:11:06;7.90;;;4.40;;
13311;SDS011;34033;48.672;9.376;2023-02-08T09:13:33;7.73;;;4.63;;
13311;SDS011;34033;48.672;9.376;2023-02-08T09:16:02;6.57;;;4.10;;
13311;SDS011;34033;48.672;9.376;2023-02-08T09:18:36;6.13;;;3.97;;
13311;SDS011;34033;48.672;9.376;2023-02-08T09:21:05;7.10;;;4.37;;
13311;SDS011;34033;48.672;9.376;2023-02-08T09:23:32;6.93;;;4.00;;
13311;SDS011;34033;48.672;9.376;2023-02-08T09:25:57;7.60;;;3.93;;
13311;SDS011;34033;48.672;9.376;2023-02-08T09:28:22;7.30;;;4.17;;
13311;SDS011;34033;48.672;9.376;2023-02-08T09:30:48;6.37;;;4.33;;
13311;SDS011;34033;48.672;9.376;2023-02-08T09:33:13;7.33;;;3.93;;
13311;SDS011;34033;48.672;9.376;2023-02-08T09:35:38;6.40;;;4.30;;
13311;SDS011;34033;48.672;9.376;2023-02-08T09:38:04;6.47;;;4.33;;
13311;SDS011;34033;48.672;9.376;2023-02-08T09:43:36;6.07;;;3.73;;
13311;SDS011;34033;48.672;9.376;2023-02-08T09:46:19;7.00;;;3.90;;
13311;SDS011;34033;48.672;9.376;2023-02-08T09:48:47;5.93;;;3.77;;
13311;SDS011;34033;48.672;9.376;2023-02-08T09:54:06;5.57;;;3.57;;
13311;SDS011;34033;48.672;9.376;2023-02-08T09:56:39;5.77;;;3.80;;
13311;SDS011;34033;48.672;9.376;2023-02-08T09:59:20;4.70;;;3.43;;
13311;SDS011;34033;48.672;9.376;2023-02-08T10:01:48;5.50;;;3.57;;
13311;SDS011;34033;48.672;9.376;2023-02-08T10:04:21;5.07;;;3.83;;
13311;SDS011;34033;48.672;9.376;2023-02-08T10:06:49;5.27;;;3.90;;
13311;SDS011;34033;48.672;9.376;2023-02-08T10:09:15;4.33;;;3.43;;
13311;SDS011;34033;48.672;9.376;2023-02-08T10:17:06;6.13;;;3.70;;
13311;SDS011;34033;48.672;9.376;2023-02-08T10:25:24;5.97;;;3.30;;
13311;SDS011;34033;48.672;9.376;2023-02-08T10:36:36;5.73;;;3.73;;
13311;SDS011;34033;48.672;9.376;2023-02-08T10:39:11;5.63;;;3.57;;
13311;SDS011;34033;48.672;9.376;2023-02-08T10:41:40;4.47;;;3.60;;
13311;SDS011;34033;48.672;9.376;2023-02-08T10:47:02;6.33;;;3.80;;
13311;SDS011;34033;48.672;9.376;2023-02-08T10:49:57;5.10;;;3.70;;
13311;SDS011;34033;48.672;9.376;2023-02-08T10:52:28;5.63;;;3.43;;
13311;SDS011;34033;48.672;9.376;2023-02-08T10:54:55;3.50;;;3.17;;
13311;SDS011;34033;48.672;9.376;2023-02-08T10:57:23;3.90;;;3.10;;
13311;SDS011;34033;48.672;9.376;2023-02-08T10:59:57;5.27;;;3.03;;
13311;SDS011;34033;48.672;9.376;2023-02-08T11:02:27;5.60;;;3.47;;
13311;SDS011;34033;48.672;9.376;2023-02-08T11:05:09;4.37;;;3.30;;
13311;SDS011;34033;48.672;9.376;2023-02-08T11:07:41;4.07;;;3.03;;
13311;SDS011;34033;48.672;9.376;2023-02-08T11:10:13;5.50;;;3.10;;
13311;SDS011;34033;48.672;9.376;2023-02-08T11:12:40;4.87;;;3.47;;
13311;SDS011;34033;48.672;9.376;2023-02-08T11:15:20;4.40;;;3.13;;
13311;SDS011;34033;48.672;9.376;2023-02-08T11:17:52;4.33;;;3.30;;
13311;SDS011;34033;48.672;9.376;2023-02-08T11:20:30;4.97;;;3.30;;
13311;SDS011;34033;48.672;9.376;2023-02-08T11:23:00;5.03;;;3.50;;
13311;SDS011;34033;48.672;9.376;2023-02-08T11:25:38;5.17;;;3.40;;
13311;SDS011;34033;48.672;9.376;2023-02-08T11:28:04;5.33;;;3.20;;
13311;SDS011;34033;48.672;9.376;2023-02-08T11:30:53;3.80;;;2.87;;
13311;SDS011;34033;48.672;9.376;2023-02-08T11:33:26;3.13;;;2.60;;
13311;SDS011;34033;48.672;9.376;2023-02-08T11:35:55;3.50;;;2.97;;
13311;SDS011;34033;48.672;9.376;2023-02-08T11:38:23;2.93;;;2.57;;
13311;SDS011;34033;48.672;9.376;2023-02-08T11:40:52;3.93;;;2.53;;
13311;SDS011;34033;48.672;9.376;2023-02-08T11:43:28;4.33;;;3.00;;
13311;SDS011;34033;48.672;9.376;2023-02-08T11:45:55;3.70;;;2.83;;
13311;SDS011;34033;48.672;9.376;2023-02-08T11:48:23;4.90;;;3.03;;
13311;SDS011;34033;48.672;9.376;2023-02-08T11:50:57;4.90;;;3.10;;
13311;SDS011;34033;48.672;9.376;2023-02-08T11:56:01;4.03;;;2.93;;
13311;SDS011;34033;48.672;9.376;2023-02-08T11:58:29;2.73;;;2.47;;
13311;SDS011;34033;48.672;9.376;2023-02-08T12:01:55;2.47;;;2.20;;
13311;SDS011;34033;48.672;9.376;2023-02-08T12:03:55;2.83;;;2.43;;
13311;SDS011;34033;48.672;9.376;2023-02-08T12:12:04;2.83;;;2.33;;
13311;SDS011;34033;48.672;9.376;2023-02-08T12:20:12;3.43;;;2.70;;
13311;SDS011;34033;48.672;9.376;2023-02-08T12:26:03;3.80;;;2.43;;
13311;SDS011;34033;48.672;9.376;2023-02-08T12:33:42;3.00;;;2.50;;
13311;SDS011;34033;48.672;9.376;2023-02-08T12:36:18;2.63;;;2.37;;
13311;SDS011;34033;48.672;9.376;2023-02-08T12:42:16;3.93;;;2.53;;
13311;SDS011;34033;48.672;9.376;2023-02-08T12:45:15;5.63;;;2.77;;
13311;SDS011;34033;48.672;9.376;2023-02-08T12:53:24;4.47;;;2.70;;
13311;SDS011;34033;48.672;9.376;2023-02-08T12:55:55;4.00;;;2.80;;
13311;SDS011;34033;48.672;9.376;2023-02-08T12:58:42;3.70;;;2.90;;
13311;SDS011;34033;48.672;9.376;2023-02-08T13:01:11;3.90;;;2.83;;
13311;SDS011;34033;48.672;9.376;2023-02-08T13:11:57;3.53;;;2.90;;
13311;SDS011;34033;48.672;9.376;2023-02-08T13:22:22;3.97;;;3.10;;
13311;SDS011;34033;48.672;9.376;2023-02-08T13:24:48;3.97;;;3.20;;
13311;SDS011;34033;48.672;9.376;2023-02-08T13:27:17;4.10;;;3.20;;
13311;SDS011;34033;48.672;9.376;2023-02-08T13:29:45;4.00;;;2.90;;
13311;SDS011;34033;48.672;9.376;2023-02-08T13:32:17;5.67;;;3.70;;
13311;SDS011;34033;48.672;9.376;2023-02-08T13:34:57;3.67;;;3.30;;
13311;SDS011;34033;48.672;9.376;2023-02-08T13:37:28;3.53;;;3.10;;
13311;SDS011;34033;48.672;9.376;2023-02-08T13:42:50;4.13;;;3.00;;
13311;SDS011;34033;48.672;9.376;2023-02-08T13:45:30;3.13;;;2.77;;
13311;SDS011;34033;48.672;9.376;2023-02-08T13:48:08;4.00;;;3.30;;
13311;SDS011;34033;48.672;9.376;2023-02-08T13:50:38;3.77;;;3.20;;
13311;SDS011;34033;48.672;9.376;2023-02-08T13:53:09;5.97;;;3.77;;
13311;SDS011;34033;48.672;9.376;2023-02-08T14:03:32;6.07;;;3.83;;
13311;SDS011;34033;48.672;9.376;2023-02-08T14:08:27;4.23;;;3.67;;
13311;SDS011;34033;48.672;9.376;2023-02-08T14:11:12;5.43;;;4.07;;
13311;SDS011;34033;48.672;9.376;2023-02-08T14:13:49;8.20;;;4.03;;
13311;SDS011;34033;48.672;9.376;2023-02-08T14:18:55;5.63;;;4.20;;
13311;SDS011;34033;48.672;9.376;2023-02-08T14:23:58;5.10;;;3.80;;
13311;SDS011;34033;48.672;9.376;2023-02-08T14:26:27;6.53;;;4.60;;
13311;SDS011;34033;48.672;9.376;2023-02-08T14:28:54;6.00;;;3.87;;
13311;SDS011;34033;48.672;9.376;2023-02-08T14:31:23;6.03;;;4.30;;
13311;SDS011;34033;48.672;9.376;2023-02-08T14:34:01;4.93;;;3.83;;
13311;SDS011;34033;48.672;9.376;2023-02-08T14:36:28;5.23;;;4.27;;
13311;SDS011;34033;48.672;9.376;2023-02-08T14:39:05;4.77;;;3.93;;
13311;SDS011;34033;48.672;9.376;2023-02-08T14:41:41;5.27;;;3.90;;
13311;SDS011;34033;48.672;9.376;2023-02-08T14:49:41;5.93;;;4.30;;
13311;SDS011;34033;48.672;9.376;2023-02-08T14:52:09;6.97;;;4.47;;
13311;SDS011;34033;48.672;9.376;2023-02-08T14:57:24;7.50;;;4.77;;
13311;SDS011;34033;48.672;9.376;2023-02-08T14:59:53;6.53;;;4.50;;
13311;SDS011;34033;48.672;9.376;2023-02-08T15:02:22;6.10;;;4.07;;
13311;SDS011;34033;48.672;9.376;2023-02-08T15:04:55;7.53;;;4.40;;
13311;SDS011;34033;48.672;9.376;2023-02-08T15:08:06;6.20;;;4.47;;
13311;SDS011;34033;48.672;9.376;2023-02-08T15:10:32;6.47;;;4.80;;
13311;SDS011;34033;48.672;9.376;2023-02-08T15:13:00;6.77;;;4.87;;
13311;SDS011;34033;48.672;9.376;2023-02-08T15:15:32;7.87;;;4.73;;
13311;SDS011;34033;48.672;9.376;2023-02-08T15:18:01;7.90;;;5.07;;
13311;SDS011;34033;48.672;9.376;2023-02-08T15:20:29;6.43;;;4.70;;
13311;SDS011;34033;48.672;9.376;2023-02-08T15:23:01;6.73;;;4.77;;
13311;SDS011;34033;48.672;9.376;2023-02-08T15:25:30;6.07;;;4.77;;
13311;SDS011;34033;48.672;9.376;2023-02-08T15:27:58;6.20;;;4.50;;
13311;SDS011;34033;48.672;9.376;2023-02-08T15:30:40;3.83;;;2.60;;
13311;SDS011;34033;48.672;9.376;2023-02-08T15:33:08;8.23;;;5.90;;
13311;SDS011;34033;48.672;9.376;2023-02-08T15:35:38;8.67;;;5.60;;
13311;SDS011;34033;48.672;9.376;2023-02-08T15:38:10;7.20;;;4.80;;
13311;SDS011;34033;48.672;9.376;2023-02-08T15:40:40;7.10;;;4.90;;
13311;SDS011;34033;48.672;9.376;2023-02-08T15:45:31;6.17;;;4.73;;
13311;SDS011;34033;48.672;9.376;2023-02-08T15:47:57;8.00;;;5.43;;
13311;SDS011;34033;48.672;9.376;2023-02-08T15:50:23;7.30;;;5.20;;
13311;SDS011;34033;48.672;9.376;2023-02-08T15:52:52;7.50;;;5.47;;
13311;SDS011;34033;48.672;9.376;2023-02-08T15:55:22;10.50;;;5.30;;
13311;SDS011;34033;48.672;9.376;2023-02-08T15:57:57;7.50;;;5.30;;
13311;SDS011;34033;48.672;9.376;2023-02-08T16:00:30;6.80;;;5.33;;
13311;SDS011;34033;48.672;9.376;2023-02-08T16:03:06;8.93;;;5.47;;
13311;SDS011;34033;48.672;9.376;2023-02-08T16:05:39;8.47;;;5.57;;
13311;SDS011;34033;48.672;9.376;2023-02-08T16:08:05;7.97;;;5.27;;
13311;SDS011;34033;48.672;9.376;2023-02-08T16:10:39;11.07;;;5.50;;
13311;SDS011;34033;48.672;9.376;2023-02-08T16:15:48;7.47;;;5.13;;
13311;SDS011;34033;48.672;9.376;2023-02-08T16:21:05;7.13;;;5.20;;
13311;SDS011;34033;48.672;9.376;2023-02-08T16:23:52;7.43;;;5.43;;
13311;SDS011;34033;48.672;9.376;2023-02-08T16:28:53;6.97;;;5.30;;
13311;SDS011;34033;48.672;9.376;2023-02-08T16:31:22;9.90;;;5.93;;
13311;SDS011;34033;48.672;9.376;2023-02-08T16:36:43;7.47;;;5.10;;
13311;SDS011;34033;48.672;9.376;2023-02-08T16:44:21;9.33;;;6.20;;
13311;SDS011;34033;48.672;9.376;2023-02-08T16:46:47;10.27;;;6.00;;
13311;SDS011;34033;48.672;9.376;2023-02-08T16:49:12;11.43;;;6.03;;
13311;SDS011;34033;48.672;9.376;2023-02-08T16:51:38;12.23;;;5.90;;
13311;SDS011;34033;48.672;9.376;2023-02-08T16:54:09;7.77;;;6.00;;
13311;SDS011;34033;48.672;9.376;2023-02-08T16:56:37;8.90;;;6.40;;
13311;SDS011;34033;48.672;9.376;2023-02-08T16:59:04;9.37;;;6.30;;
13311;SDS011;34033;48.672;9.376;2023-02-08T17:01:30;11.23;;;7.63;;
13311;SDS011;34033;48.672;9.376;2023-02-08T17:03:55;14.80;;;7.87;;
13311;SDS011;34033;48.672;9.376;2023-02-08T17:06:28;14.00;;;8.20;;
13311;SDS011;34033;48.672;9.376;2023-02-08T17:08:56;10.07;;;6.70;;
13311;SDS011;34033;48.672;9.376;2023-02-08T17:11:22;12.20;;;6.97;;
13311;SDS011;34033;48.672;9.376;2023-02-08T17:13:47;11.87;;;7.37;;
13311;SDS011;34033;48.672;9.376;2023-02-08T17:16:17;15.90;;;8.07;;
13311;SDS011;34033;48.672;9.376;2023-02-08T17:18:45;11.53;;;7.70;;
13311;SDS011;34033;48.672;9.376;2023-02-08T17:21:11;12.23;;;7.30;;
13311;SDS011;34033;48.672;9.376;2023-02-08T17:23:37;13.10;;;7.80;;
13311;SDS011;34033;48.672;9.376;2023-02-08T17:26:03;10.27;;;7.00;;
13311;SDS011;34033;48.672;9.376;2023-02-08T17:28:52;14.67;;;7.77;;
13311;SDS011;34033;48.672;9.376;2023-02-08T17:31:19;14.03;;;7.83;;
13311;SDS011;34033;48.672;9.376;2023-02-08T17:33:45;14.53;;;8.60;;
13311;SDS011;34033;48.672;9.376;2023-02-08T17:36:12;13.50;;;8.67;;
13311;SDS011;34033;48.672;9.376;2023-02-08T17:38:40;13.87;;;8.13;;